sensor_id;sensor_type;location;lat;lon;timestamp;P1;durP1;ratioP1;P2;durP2;ratioP2
16189;SDS011;41754;51.498;7.540;2023-04-24T00:01:06;2.30;;;0.60;;
16189;SDS011;41754;51.498;7.540;2023-04-24T00:03:36;0.50;;;0.50;;
16189;SDS011;41754;51.498;7.540;2023-04-24T00:06:05;0.57;;;0.52;;
16189;SDS011;41754;51.498;7.540;2023-04-24T00:08:34;0.60;;;0.40;;
16189;SDS011;41754;51.498;7.540;2023-04-24T00:11:03;1.45;;;0.45;;
16189;SDS011;41754;51.498;7.540;2023-04-24T00:13:31;1.23;;;0.50;;
16189;SDS011;41754;51.498;7.540;2023-04-24T00:15:59;1.77;;;0.50;;
16189;SDS011;41754;51.498;7.540;2023-04-24T00:18:27;1.30;;;0.65;;
16189;SDS011;41754;51.498;7.540;2023-04-24T00:20:56;0.47;;;0.40;;
16189;SDS011;41754;51.498;7.540;2023-04-24T00:23:25;1.55;;;0.52;;
16189;SDS011;41754;51.498;7.540;2023-04-24T00:25:52;0.50;;;0.40;;
16189;SDS011;41754;51.498;7.540;2023-04-24T00:28:20;0.50;;;0.50;;
16189;SDS011;41754;51.498;7.540;2023-04-24T00:30:48;1.20;;;0.40;;
16189;SDS011;41754;51.498;7.540;2023-04-24T00:33:16;0.80;;;0.80;;
16189;SDS011;41754;51.498;7.540;2023-04-24T00:35:44;0.77;;;0.63;;
16189;SDS011;41754;51.498;7.540;2023-04-24T00:38:14;3.28;;;0.70;;
16189;SDS011;41754;51.498;7.540;2023-04-24T00:40:41;2.05;;;0.70;;
16189;SDS011;41754;51.498;7.540;2023-04-24T00:43:09;1.10;;;0.80;;
16189;SDS011;41754;51.498;7.540;2023-04-24T00:45:38;1.13;;;0.80;;
16189;SDS011;41754;51.498;7.540;2023-04-24T00:48:06;0.93;;;0.70;;
16189;SDS011;41754;51.498;7.540;2023-04-24T00:50:35;0.50;;;0.50;;
16189;SDS011;41754;51.498;7.540;2023-04-24T00:53:04;0.88;;;0.77;;
16189;SDS011;41754;51.498;7.540;2023-04-24T00:55:33;1.20;;;0.90;;
16189;SDS011;41754;51.498;7.540;2023-04-24T00:58:01;2.15;;;1.15;;
16189;SDS011;41754;51.498;7.540;2023-04-24T01:00:29;0.85;;;0.85;;
16189;SDS011;41754;51.498;7.540;2023-04-24T01:02:59;0.80;;;0.80;;
16189;SDS011;41754;51.498;7.540;2023-04-24T01:05:29;1.05;;;0.95;;
16189;SDS011;41754;51.498;7.540;2023-04-24T01:07:57;1.90;;;1.05;;
16189;SDS011;41754;51.498;7.540;2023-04-24T01:10:26;1.85;;;0.85;;
16189;SDS011;41754;51.498;7.540;2023-04-24T01:12:58;1.20;;;1.10;;
16189;SDS011;41754;51.498;7.540;2023-04-24T01:15:26;1.05;;;1.00;;
16189;SDS011;41754;51.498;7.540;2023-04-24T01:17:54;1.45;;;0.90;;
16189;SDS011;41754;51.498;7.540;2023-04-24T01:20:22;0.93;;;0.80;;
16189;SDS011;41754;51.498;7.540;2023-04-24T01:22:53;1.40;;;1.00;;
16189;SDS011;41754;51.498;7.540;2023-04-24T01:25:22;1.20;;;1.10;;
16189;SDS011;41754;51.498;7.540;2023-04-24T01:27:52;0.90;;;0.90;;
16189;SDS011;41754;51.498;7.540;2023-04-24T01:30:19;1.57;;;1.13;;
16189;SDS011;41754;51.498;7.540;2023-04-24T01:32:49;1.63;;;1.15;;
16189;SDS011;41754;51.498;7.540;2023-04-24T01:35:18;1.17;;;1.02;;
16189;SDS011;41754;51.498;7.540;2023-04-24T01:37:46;1.00;;;0.90;;
16189;SDS011;41754;51.498;7.540;2023-04-24T01:40:16;2.08;;;1.00;;
16189;SDS011;41754;51.498;7.540;2023-04-24T01:42:44;1.33;;;1.10;;
16189;SDS011;41754;51.498;7.540;2023-04-24T01:45:12;1.20;;;1.10;;
16189;SDS011;41754;51.498;7.540;2023-04-24T01:47:40;1.15;;;1.05;;
16189;SDS011;41754;51.498;7.540;2023-04-24T01:50:09;1.73;;;1.15;;
16189;SDS011;41754;51.498;7.540;2023-04-24T01:52:38;1.75;;;0.85;;
16189;SDS011;41754;51.498;7.540;2023-04-24T01:55:06;1.38;;;1.00;;
16189;SDS011;41754;51.498;7.540;2023-04-24T01:57:36;2.67;;;1.27;;
16189;SDS011;41754;51.498;7.540;2023-04-24T02:00:05;2.05;;;1.45;;
16189;SDS011;41754;51.498;7.540;2023-04-24T02:02:40;1.35;;;1.25;;
16189;SDS011;41754;51.498;7.540;2023-04-24T02:05:12;2.03;;;1.20;;
16189;SDS011;41754;51.498;7.540;2023-04-24T02:07:40;1.75;;;1.10;;
16189;SDS011;41754;51.498;7.540;2023-04-24T02:10:09;1.40;;;1.30;;
16189;SDS011;41754;51.498;7.540;2023-04-24T02:12:42;1.40;;;1.30;;
16189;SDS011;41754;51.498;7.540;2023-04-24T02:15:10;2.65;;;1.45;;
16189;SDS011;41754;51.498;7.540;2023-04-24T02:17:39;1.40;;;1.30;;
16189;SDS011;41754;51.498;7.540;2023-04-24T02:20:07;2.22;;;1.50;;
16189;SDS011;41754;51.498;7.540;2023-04-24T02:22:37;2.97;;;1.70;;
16189;SDS011;41754;51.498;7.540;2023-04-24T02:25:05;1.40;;;1.30;;
16189;SDS011;41754;51.498;7.540;2023-04-24T02:27:34;2.15;;;1.50;;
16189;SDS011;41754;51.498;7.540;2023-04-24T02:30:06;2.10;;;1.65;;
16189;SDS011;41754;51.498;7.540;2023-04-24T02:32:35;1.92;;;1.30;;
16189;SDS011;41754;51.498;7.540;2023-04-24T02:35:03;1.60;;;1.50;;
16189;SDS011;41754;51.498;7.540;2023-04-24T02:37:32;1.75;;;1.33;;
16189;SDS011;41754;51.498;7.540;2023-04-24T02:40:00;1.92;;;1.73;;
16189;SDS011;41754;51.498;7.540;2023-04-24T02:42:28;1.98;;;1.80;;
16189;SDS011;41754;51.498;7.540;2023-04-24T02:44:56;1.88;;;1.70;;
16189;SDS011;41754;51.498;7.540;2023-04-24T02:47:26;2.35;;;2.15;;
16189;SDS011;41754;51.498;7.540;2023-04-24T02:49:54;3.40;;;2.10;;
16189;SDS011;41754;51.498;7.540;2023-04-24T02:52:22;2.85;;;1.83;;
16189;SDS011;41754;51.498;7.540;2023-04-24T02:54:50;2.67;;;1.80;;
16189;SDS011;41754;51.498;7.540;2023-04-24T02:57:20;2.33;;;1.92;;
16189;SDS011;41754;51.498;7.540;2023-04-24T02:59:48;2.90;;;1.90;;
16189;SDS011;41754;51.498;7.540;2023-04-24T03:02:16;2.75;;;1.85;;
16189;SDS011;41754;51.498;7.540;2023-04-24T03:04:46;2.77;;;2.10;;
16189;SDS011;41754;51.498;7.540;2023-04-24T03:07:14;4.63;;;3.15;;
16189;SDS011;41754;51.498;7.540;2023-04-24T03:09:42;3.80;;;3.10;;
16189;SDS011;41754;51.498;7.540;2023-04-24T03:12:10;4.28;;;3.85;;
16189;SDS011;41754;51.498;7.540;2023-04-24T03:14:38;5.53;;;4.60;;
16189;SDS011;41754;51.498;7.540;2023-04-24T03:17:06;7.60;;;6.53;;
16189;SDS011;41754;51.498;7.540;2023-04-24T03:19:34;7.63;;;6.83;;
16189;SDS011;41754;51.498;7.540;2023-04-24T03:22:09;8.67;;;6.60;;
16189;SDS011;41754;51.498;7.540;2023-04-24T03:24:38;7.87;;;7.03;;
16189;SDS011;41754;51.498;7.540;2023-04-24T03:27:06;8.73;;;6.37;;
16189;SDS011;41754;51.498;7.540;2023-04-24T03:29:55;11.60;;;7.20;;
16189;SDS011;41754;51.498;7.540;2023-04-24T03:32:29;7.67;;;6.77;;
16189;SDS011;41754;51.498;7.540;2023-04-24T03:34:59;7.53;;;6.83;;
16189;SDS011;41754;51.498;7.540;2023-04-24T03:37:29;8.13;;;7.33;;
16189;SDS011;41754;51.498;7.540;2023-04-24T03:40:11;8.17;;;7.37;;
16189;SDS011;41754;51.498;7.540;2023-04-24T03:42:39;8.23;;;7.43;;
16189;SDS011;41754;51.498;7.540;2023-04-24T03:45:08;9.33;;;7.27;;
16189;SDS011;41754;51.498;7.540;2023-04-24T03:47:39;9.80;;;7.27;;
16189;SDS011;41754;51.498;7.540;2023-04-24T03:50:08;9.83;;;7.27;;
16189;SDS011;41754;51.498;7.540;2023-04-24T03:52:41;9.07;;;7.40;;
16189;SDS011;41754;51.498;7.540;2023-04-24T03:55:11;11.63;;;7.30;;
16189;SDS011;41754;51.498;7.540;2023-04-24T03:57:44;9.57;;;8.67;;
16189;SDS011;41754;51.498;7.540;2023-04-24T04:00:19;9.47;;;7.83;;
16189;SDS011;41754;51.498;7.540;2023-04-24T04:02:55;9.67;;;8.40;;
16189;SDS011;41754;51.498;7.540;2023-04-24T04:05:24;9.40;;;8.50;;
16189;SDS011;41754;51.498;7.540;2023-04-24T04:07:53;8.40;;;7.60;;
16189;SDS011;41754;51.498;7.540;2023-04-24T04:10:21;10.43;;;8.97;;
16189;SDS011;41754;51.498;7.540;2023-04-24T04:12:49;10.63;;;9.03;;
16189;SDS011;41754;51.498;7.540;2023-04-24T04:15:17;11.90;;;9.40;;
16189;SDS011;41754;51.498;7.540;2023-04-24T04:17:47;9.67;;;8.77;;
16189;SDS011;41754;51.498;7.540;2023-04-24T04:20:15;9.43;;;8.43;;
16189;SDS011;41754;51.498;7.540;2023-04-24T04:22:43;9.87;;;8.20;;
16189;SDS011;41754;51.498;7.540;2023-04-24T04:25:18;9.83;;;8.67;;
16189;SDS011;41754;51.498;7.540;2023-04-24T04:27:46;9.70;;;8.43;;
16189;SDS011;41754;51.498;7.540;2023-04-24T04:30:15;11.73;;;8.77;;
16189;SDS011;41754;51.498;7.540;2023-04-24T04:32:48;9.43;;;8.20;;
16189;SDS011;41754;51.498;7.540;2023-04-24T04:35:18;10.13;;;8.93;;
16189;SDS011;41754;51.498;7.540;2023-04-24T04:37:54;11.97;;;9.23;;
16189;SDS011;41754;51.498;7.540;2023-04-24T04:40:49;10.47;;;9.37;;
16189;SDS011;41754;51.498;7.540;2023-04-24T04:43:20;10.67;;;9.00;;
16189;SDS011;41754;51.498;7.540;2023-04-24T04:45:52;10.30;;;8.70;;
16189;SDS011;41754;51.498;7.540;2023-04-24T04:48:30;9.97;;;9.07;;
16189;SDS011;41754;51.498;7.540;2023-04-24T04:51:00;11.77;;;9.50;;
16189;SDS011;41754;51.498;7.540;2023-04-24T04:53:28;10.73;;;9.67;;
16189;SDS011;41754;51.498;7.540;2023-04-24T04:55:58;10.97;;;9.87;;
16189;SDS011;41754;51.498;7.540;2023-04-24T04:58:32;10.57;;;9.47;;
16189;SDS011;41754;51.498;7.540;2023-04-24T05:01:01;10.87;;;9.77;;
16189;SDS011;41754;51.498;7.540;2023-04-24T05:03:35;15.40;;;10.10;;
16189;SDS011;41754;51.498;7.540;2023-04-24T05:06:07;10.57;;;9.47;;
16189;SDS011;41754;51.498;7.540;2023-04-24T05:08:37;11.67;;;9.73;;
16189;SDS011;41754;51.498;7.540;2023-04-24T05:11:12;12.70;;;9.90;;
16189;SDS011;41754;51.498;7.540;2023-04-24T05:13:40;13.03;;;10.53;;
16189;SDS011;41754;51.498;7.540;2023-04-24T05:16:14;12.43;;;10.57;;
16189;SDS011;41754;51.498;7.540;2023-04-24T05:18:42;10.93;;;9.47;;
16189;SDS011;41754;51.498;7.540;2023-04-24T05:21:16;13.13;;;10.23;;
16189;SDS011;41754;51.498;7.540;2023-04-24T05:23:48;11.97;;;10.73;;
16189;SDS011;41754;51.498;7.540;2023-04-24T05:26:26;11.07;;;9.80;;
16189;SDS011;41754;51.498;7.540;2023-04-24T05:28:56;11.13;;;9.93;;
16189;SDS011;41754;51.498;7.540;2023-04-24T05:31:25;10.80;;;9.73;;
16189;SDS011;41754;51.498;7.540;2023-04-24T05:33:53;12.13;;;10.55;;
16189;SDS011;41754;51.498;7.540;2023-04-24T05:36:21;10.60;;;9.50;;
16189;SDS011;41754;51.498;7.540;2023-04-24T05:38:49;11.50;;;8.80;;
16189;SDS011;41754;51.498;7.540;2023-04-24T05:41:17;8.47;;;7.67;;
16189;SDS011;41754;51.498;7.540;2023-04-24T05:43:48;8.63;;;7.83;;
16189;SDS011;41754;51.498;7.540;2023-04-24T05:46:16;8.13;;;7.28;;
16189;SDS011;41754;51.498;7.540;2023-04-24T05:48:44;8.50;;;7.43;;
16189;SDS011;41754;51.498;7.540;2023-04-24T05:51:12;7.38;;;6.43;;
16189;SDS011;41754;51.498;7.540;2023-04-24T05:53:40;8.38;;;7.28;;
16189;SDS011;41754;51.498;7.540;2023-04-24T05:56:08;9.00;;;6.90;;
16189;SDS011;41754;51.498;7.540;2023-04-24T05:58:36;7.60;;;6.73;;
16189;SDS011;41754;51.498;7.540;2023-04-24T06:01:05;7.10;;;6.40;;
16189;SDS011;41754;51.498;7.540;2023-04-24T06:03:33;6.73;;;6.03;;
16189;SDS011;41754;51.498;7.540;2023-04-24T06:06:02;9.30;;;6.50;;
16189;SDS011;41754;51.498;7.540;2023-04-24T06:08:31;7.07;;;6.13;;
16189;SDS011;41754;51.498;7.540;2023-04-24T06:11:00;7.10;;;6.27;;
16189;SDS011;41754;51.498;7.540;2023-04-24T06:13:31;8.20;;;7.00;;
16189;SDS011;41754;51.498;7.540;2023-04-24T06:16:18;8.20;;;7.40;;
16189;SDS011;41754;51.498;7.540;2023-04-24T06:18:53;7.60;;;6.80;;
16189;SDS011;41754;51.498;7.540;2023-04-24T06:21:21;8.27;;;7.43;;
16189;SDS011;41754;51.498;7.540;2023-04-24T06:23:49;9.17;;;7.20;;
16189;SDS011;41754;51.498;7.540;2023-04-24T06:26:17;7.82;;;7.03;;
16189;SDS011;41754;51.498;7.540;2023-04-24T06:28:45;8.00;;;7.20;;
16189;SDS011;41754;51.498;7.540;2023-04-24T06:31:13;7.60;;;6.80;;
16189;SDS011;41754;51.498;7.540;2023-04-24T06:33:42;8.70;;;6.65;;
16189;SDS011;41754;51.498;7.540;2023-04-24T06:36:11;6.90;;;5.78;;
16189;SDS011;41754;51.498;7.540;2023-04-24T06:38:39;8.17;;;5.50;;
16189;SDS011;41754;51.498;7.540;2023-04-24T06:41:07;7.20;;;5.60;;
16189;SDS011;41754;51.498;7.540;2023-04-24T06:43:35;5.83;;;5.23;;
16189;SDS011;41754;51.498;7.540;2023-04-24T06:46:03;7.25;;;5.18;;
16189;SDS011;41754;51.498;7.540;2023-04-24T06:48:31;7.43;;;4.80;;
16189;SDS011;41754;51.498;7.540;2023-04-24T06:51:01;5.25;;;4.75;;
16189;SDS011;41754;51.498;7.540;2023-04-24T06:53:29;5.23;;;4.20;;
16189;SDS011;41754;51.498;7.540;2023-04-24T06:55:56;7.55;;;4.57;;
16189;SDS011;41754;51.498;7.540;2023-04-24T06:58:25;5.00;;;3.57;;
16189;SDS011;41754;51.498;7.540;2023-04-24T07:00:53;4.17;;;3.77;;
16189;SDS011;41754;51.498;7.540;2023-04-24T07:03:21;4.75;;;3.78;;
16189;SDS011;41754;51.498;7.540;2023-04-24T07:05:49;3.63;;;3.33;;
16189;SDS011;41754;51.498;7.540;2023-04-24T07:08:19;4.33;;;3.90;;
16189;SDS011;41754;51.498;7.540;2023-04-24T07:10:48;3.70;;;3.40;;
16189;SDS011;41754;51.498;7.540;2023-04-24T07:13:17;3.67;;;3.38;;
16189;SDS011;41754;51.498;7.540;2023-04-24T07:15:45;3.83;;;3.40;;
16189;SDS011;41754;51.498;7.540;2023-04-24T07:18:15;4.18;;;3.42;;
16189;SDS011;41754;51.498;7.540;2023-04-24T07:20:43;3.93;;;3.53;;
16189;SDS011;41754;51.498;7.540;2023-04-24T07:23:11;4.50;;;3.80;;
16189;SDS011;41754;51.498;7.540;2023-04-24T07:25:41;5.57;;;5.00;;
16189;SDS011;41754;51.498;7.540;2023-04-24T07:28:09;3.95;;;3.55;;
16189;SDS011;41754;51.498;7.540;2023-04-24T07:30:37;5.10;;;3.93;;
16189;SDS011;41754;51.498;7.540;2023-04-24T07:33:05;4.27;;;3.17;;
16189;SDS011;41754;51.498;7.540;2023-04-24T07:35:33;3.03;;;2.83;;
16189;SDS011;41754;51.498;7.540;2023-04-24T07:38:03;2.80;;;2.60;;
16189;SDS011;41754;51.498;7.540;2023-04-24T07:40:31;2.50;;;2.30;;
16189;SDS011;41754;51.498;7.540;2023-04-24T07:43:00;2.67;;;2.10;;
16189;SDS011;41754;51.498;7.540;2023-04-24T07:45:28;3.75;;;2.20;;
16189;SDS011;41754;51.498;7.540;2023-04-24T07:47:57;2.53;;;2.10;;
16189;SDS011;41754;51.498;7.540;2023-04-24T07:50:25;2.50;;;2.00;;
16189;SDS011;41754;51.498;7.540;2023-04-24T07:52:53;1.90;;;1.80;;
16189;SDS011;41754;51.498;7.540;2023-04-24T07:55:21;2.23;;;2.13;;
16189;SDS011;41754;51.498;7.540;2023-04-24T07:57:52;2.97;;;2.10;;
16189;SDS011;41754;51.498;7.540;2023-04-24T08:00:22;2.97;;;2.37;;
16189;SDS011;41754;51.498;7.540;2023-04-24T08:02:50;2.72;;;2.10;;
16189;SDS011;41754;51.498;7.540;2023-04-24T08:05:18;3.40;;;2.23;;
16189;SDS011;41754;51.498;7.540;2023-04-24T08:07:46;2.77;;;2.13;;
16189;SDS011;41754;51.498;7.540;2023-04-24T08:10:15;2.50;;;2.23;;
16189;SDS011;41754;51.498;7.540;2023-04-24T08:12:43;2.87;;;1.80;;
16189;SDS011;41754;51.498;7.540;2023-04-24T08:15:11;1.70;;;1.60;;
16189;SDS011;41754;51.498;7.540;2023-04-24T08:17:40;1.70;;;1.60;;
16189;SDS011;41754;51.498;7.540;2023-04-24T08:20:08;3.50;;;1.70;;
16189;SDS011;41754;51.498;7.540;2023-04-24T08:22:40;4.70;;;2.20;;
16189;SDS011;41754;51.498;7.540;2023-04-24T08:25:08;1.60;;;1.50;;
16189;SDS011;41754;51.498;7.540;2023-04-24T08:27:37;1.53;;;1.43;;
16189;SDS011;41754;51.498;7.540;2023-04-24T08:30:06;2.50;;;1.10;;
16189;SDS011;41754;51.498;7.540;2023-04-24T08:32:35;1.50;;;1.07;;
16189;SDS011;41754;51.498;7.540;2023-04-24T08:35:05;0.80;;;0.80;;
16189;SDS011;41754;51.498;7.540;2023-04-24T08:37:35;1.33;;;1.00;;
16189;SDS011;41754;51.498;7.540;2023-04-24T08:40:05;1.60;;;0.87;;
16189;SDS011;41754;51.498;7.540;2023-04-24T08:42:37;0.83;;;0.40;;
16189;SDS011;41754;51.498;7.540;2023-04-24T08:45:07;1.90;;;0.40;;
16189;SDS011;41754;51.498;7.540;2023-04-24T08:47:36;0.47;;;0.40;;
16189;SDS011;41754;51.498;7.540;2023-04-24T08:50:08;0.30;;;0.30;;
16189;SDS011;41754;51.498;7.540;2023-04-24T08:52:36;0.20;;;0.20;;
16189;SDS011;41754;51.498;7.540;2023-04-24T08:55:04;0.60;;;0.40;;
16189;SDS011;41754;51.498;7.540;2023-04-24T08:57:33;1.47;;;0.40;;
16189;SDS011;41754;51.498;7.540;2023-04-24T09:00:02;0.63;;;0.40;;
16189;SDS011;41754;51.498;7.540;2023-04-24T09:02:31;0.40;;;0.40;;
16189;SDS011;41754;51.498;7.540;2023-04-24T09:05:01;0.40;;;0.37;;
16189;SDS011;41754;51.498;7.540;2023-04-24T09:07:33;1.47;;;0.93;;
16189;SDS011;41754;51.498;7.540;2023-04-24T09:10:03;0.87;;;0.60;;
16189;SDS011;41754;51.498;7.540;2023-04-24T09:12:31;0.40;;;0.40;;
16189;SDS011;41754;51.498;7.540;2023-04-24T09:15:00;0.27;;;0.27;;
16189;SDS011;41754;51.498;7.540;2023-04-24T09:17:30;0.40;;;0.40;;
16189;SDS011;41754;51.498;7.540;2023-04-24T09:19:58;1.10;;;0.60;;
16189;SDS011;41754;51.498;7.540;2023-04-24T09:22:27;0.50;;;0.50;;
16189;SDS011;41754;51.498;7.540;2023-04-24T09:25:03;0.50;;;0.50;;
16189;SDS011;41754;51.498;7.540;2023-04-24T09:27:33;0.70;;;0.50;;
16189;SDS011;41754;51.498;7.540;2023-04-24T09:30:01;1.00;;;0.60;;
16189;SDS011;41754;51.498;7.540;2023-04-24T09:32:30;1.50;;;0.77;;
16189;SDS011;41754;51.498;7.540;2023-04-24T09:35:05;0.83;;;0.80;;
16189;SDS011;41754;51.498;7.540;2023-04-24T09:37:35;1.40;;;0.77;;
16189;SDS011;41754;51.498;7.540;2023-04-24T09:40:09;0.80;;;0.80;;
16189;SDS011;41754;51.498;7.540;2023-04-24T09:42:39;1.43;;;1.33;;
16189;SDS011;41754;51.498;7.540;2023-04-24T09:45:10;1.60;;;1.50;;
16189;SDS011;41754;51.498;7.540;2023-04-24T09:47:43;2.93;;;1.53;;
16189;SDS011;41754;51.498;7.540;2023-04-24T09:50:12;3.10;;;1.50;;
16189;SDS011;41754;51.498;7.540;2023-04-24T09:52:42;1.83;;;1.43;;
16189;SDS011;41754;51.498;7.540;2023-04-24T09:55:13;1.70;;;1.40;;
16189;SDS011;41754;51.498;7.540;2023-04-24T09:57:48;1.53;;;1.37;;
16189;SDS011;41754;51.498;7.540;2023-04-24T10:00:18;1.80;;;1.60;;
16189;SDS011;41754;51.498;7.540;2023-04-24T10:02:58;3.10;;;1.60;;
16189;SDS011;41754;51.498;7.540;2023-04-24T10:05:27;1.40;;;1.30;;
16189;SDS011;41754;51.498;7.540;2023-04-24T10:07:57;1.60;;;1.50;;
16189;SDS011;41754;51.498;7.540;2023-04-24T10:10:28;2.70;;;1.50;;
16189;SDS011;41754;51.498;7.540;2023-04-24T10:12:57;1.47;;;1.37;;
16189;SDS011;41754;51.498;7.540;2023-04-24T10:15:26;3.87;;;2.10;;
16189;SDS011;41754;51.498;7.540;2023-04-24T10:17:54;2.00;;;1.77;;
16189;SDS011;41754;51.498;7.540;2023-04-24T10:20:23;3.20;;;1.50;;
16189;SDS011;41754;51.498;7.540;2023-04-24T10:22:53;2.27;;;1.63;;
16189;SDS011;41754;51.498;7.540;2023-04-24T10:25:22;2.00;;;1.60;;
16189;SDS011;41754;51.498;7.540;2023-04-24T10:27:53;2.23;;;1.83;;
16189;SDS011;41754;51.498;7.540;2023-04-24T10:30:23;2.00;;;1.80;;
16189;SDS011;41754;51.498;7.540;2023-04-24T10:32:52;3.53;;;3.23;;
16189;SDS011;41754;51.498;7.540;2023-04-24T10:35:20;3.70;;;2.63;;
16189;SDS011;41754;51.498;7.540;2023-04-24T10:37:51;2.40;;;2.20;;
16189;SDS011;41754;51.498;7.540;2023-04-24T10:40:25;6.00;;;2.40;;
16189;SDS011;41754;51.498;7.540;2023-04-24T10:42:56;2.90;;;2.17;;
16189;SDS011;41754;51.498;7.540;2023-04-24T10:45:24;3.87;;;2.83;;
16189;SDS011;41754;51.498;7.540;2023-04-24T10:47:54;3.03;;;2.80;;
16189;SDS011;41754;51.498;7.540;2023-04-24T10:50:26;3.73;;;2.73;;
16189;SDS011;41754;51.498;7.540;2023-04-24T10:53:04;3.53;;;2.73;;
16189;SDS011;41754;51.498;7.540;2023-04-24T10:55:41;3.37;;;3.07;;
16189;SDS011;41754;51.498;7.540;2023-04-24T10:58:14;4.23;;;3.57;;
16189;SDS011;41754;51.498;7.540;2023-04-24T11:00:47;3.97;;;3.33;;
16189;SDS011;41754;51.498;7.540;2023-04-24T11:03:25;4.17;;;3.00;;
16189;SDS011;41754;51.498;7.540;2023-04-24T11:05:58;4.43;;;3.13;;
16189;SDS011;41754;51.498;7.540;2023-04-24T11:08:28;5.03;;;3.30;;
16189;SDS011;41754;51.498;7.540;2023-04-24T11:10:58;3.70;;;3.23;;
16189;SDS011;41754;51.498;7.540;2023-04-24T11:16:31;4.63;;;4.03;;
16189;SDS011;41754;51.498;7.540;2023-04-24T11:19:03;6.77;;;4.20;;
16189;SDS011;41754;51.498;7.540;2023-04-24T11:21:38;5.50;;;4.50;;
16189;SDS011;41754;51.498;7.540;2023-04-24T11:24:24;5.10;;;4.60;;
16189;SDS011;41754;51.498;7.540;2023-04-24T11:26:53;6.33;;;5.20;;
16189;SDS011;41754;51.498;7.540;2023-04-24T11:29:24;9.00;;;5.70;;
16189;SDS011;41754;51.498;7.540;2023-04-24T11:32:22;8.17;;;5.67;;
16189;SDS011;41754;51.498;7.540;2023-04-24T11:34:52;8.13;;;5.10;;
16189;SDS011;41754;51.498;7.540;2023-04-24T11:37:21;10.05;;;6.68;;
16189;SDS011;41754;51.498;7.540;2023-04-24T11:39:54;9.37;;;5.80;;
16189;SDS011;41754;51.498;7.540;2023-04-24T11:42:23;10.40;;;6.10;;
16189;SDS011;41754;51.498;7.540;2023-04-24T11:44:53;11.63;;;6.23;;
16189;SDS011;41754;51.498;7.540;2023-04-24T11:47:29;11.80;;;7.43;;
16189;SDS011;41754;51.498;7.540;2023-04-24T11:49:59;11.13;;;7.27;;
16189;SDS011;41754;51.498;7.540;2023-04-24T11:52:29;13.63;;;8.43;;
16189;SDS011;41754;51.498;7.540;2023-04-24T11:54:57;14.80;;;7.70;;
16189;SDS011;41754;51.498;7.540;2023-04-24T11:57:26;11.83;;;6.47;;
16189;SDS011;41754;51.498;7.540;2023-04-24T11:59:56;13.57;;;8.30;;
16189;SDS011;41754;51.498;7.540;2023-04-24T12:02:25;12.07;;;7.10;;
16189;SDS011;41754;51.498;7.540;2023-04-24T12:04:55;11.70;;;6.83;;
16189;SDS011;41754;51.498;7.540;2023-04-24T12:07:23;11.63;;;7.17;;
16189;SDS011;41754;51.498;7.540;2023-04-24T12:09:55;15.70;;;7.67;;
16189;SDS011;41754;51.498;7.540;2023-04-24T12:12:26;14.53;;;8.30;;
16189;SDS011;41754;51.498;7.540;2023-04-24T12:14:57;14.20;;;8.40;;
16189;SDS011;41754;51.498;7.540;2023-04-24T12:17:27;13.40;;;8.50;;
16189;SDS011;41754;51.498;7.540;2023-04-24T12:19:57;11.23;;;8.40;;
16189;SDS011;41754;51.498;7.540;2023-04-24T12:22:27;12.23;;;6.23;;
16189;SDS011;41754;51.498;7.540;2023-04-24T12:24:56;8.97;;;5.73;;
16189;SDS011;41754;51.498;7.540;2023-04-24T12:27:25;11.40;;;5.70;;
16189;SDS011;41754;51.498;7.540;2023-04-24T12:29:56;8.27;;;5.23;;
16189;SDS011;41754;51.498;7.540;2023-04-24T12:32:25;10.63;;;5.33;;
16189;SDS011;41754;51.498;7.540;2023-04-24T12:34:54;11.50;;;5.73;;
16189;SDS011;41754;51.498;7.540;2023-04-24T12:37:23;9.43;;;5.07;;
16189;SDS011;41754;51.498;7.540;2023-04-24T18:15:57;5.43;;;2.30;;
16189;SDS011;41754;51.498;7.540;2023-04-24T18:18:25;5.23;;;2.40;;
16189;SDS011;41754;51.498;7.540;2023-04-24T18:20:53;5.53;;;2.20;;
16189;SDS011;41754;51.498;7.540;2023-04-24T18:23:21;4.53;;;1.60;;
16189;SDS011;41754;51.498;7.540;2023-04-24T18:25:49;4.67;;;2.37;;
16189;SDS011;41754;51.498;7.540;2023-04-24T18:28:17;4.00;;;1.97;;
16189;SDS011;41754;51.498;7.540;2023-04-24T18:30:45;5.10;;;2.40;;
16189;SDS011;41754;51.498;7.540;2023-04-24T18:33:15;6.28;;;1.95;;
16189;SDS011;41754;51.498;7.540;2023-04-24T18:35:44;7.40;;;1.93;;
16189;SDS011;41754;51.498;7.540;2023-04-24T18:38:12;5.20;;;2.67;;
16189;SDS011;41754;51.498;7.540;2023-04-24T18:40:40;8.20;;;2.47;;
16189;SDS011;41754;51.498;7.540;2023-04-24T18:43:08;3.47;;;2.00;;
16189;SDS011;41754;51.498;7.540;2023-04-24T18:45:36;6.50;;;2.37;;
16189;SDS011;41754;51.498;7.540;2023-04-24T18:48:04;5.67;;;2.20;;
16189;SDS011;41754;51.498;7.540;2023-04-24T18:50:34;6.27;;;2.57;;
16189;SDS011;41754;51.498;7.540;2023-04-24T18:53:04;2.63;;;2.30;;
16189;SDS011;41754;51.498;7.540;2023-04-24T18:55:32;5.60;;;2.50;;
16189;SDS011;41754;51.498;7.540;2023-04-24T18:58:01;4.63;;;2.87;;
16189;SDS011;41754;51.498;7.540;2023-04-24T19:00:29;5.40;;;2.60;;
16189;SDS011;41754;51.498;7.540;2023-04-24T19:02:57;7.03;;;2.87;;
16189;SDS011;41754;51.498;7.540;2023-04-24T19:05:25;4.70;;;2.83;;
16189;SDS011;41754;51.498;7.540;2023-04-24T19:07:55;4.97;;;2.83;;
16189;SDS011;41754;51.498;7.540;2023-04-24T19:10:23;6.13;;;2.90;;
16189;SDS011;41754;51.498;7.540;2023-04-24T19:12:51;4.87;;;2.87;;
16189;SDS011;41754;51.498;7.540;2023-04-24T19:15:22;9.50;;;3.53;;
16189;SDS011;41754;51.498;7.540;2023-04-24T19:17:50;7.40;;;3.80;;
16189;SDS011;41754;51.498;7.540;2023-04-24T19:20:18;7.50;;;3.50;;
16189;SDS011;41754;51.498;7.540;2023-04-24T19:22:47;7.47;;;3.37;;
16189;SDS011;41754;51.498;7.540;2023-04-24T19:25:16;7.57;;;3.80;;
16189;SDS011;41754;51.498;7.540;2023-04-24T19:27:44;7.37;;;3.70;;
16189;SDS011;41754;51.498;7.540;2023-04-24T19:30:12;7.57;;;3.73;;
16189;SDS011;41754;51.498;7.540;2023-04-24T19:32:40;6.87;;;3.50;;
16189;SDS011;41754;51.498;7.540;2023-04-24T19:35:08;7.90;;;3.37;;
16189;SDS011;41754;51.498;7.540;2023-04-24T19:37:37;5.00;;;3.23;;
16189;SDS011;41754;51.498;7.540;2023-04-24T19:40:05;6.37;;;3.40;;
16189;SDS011;41754;51.498;7.540;2023-04-24T19:42:38;10.10;;;4.33;;
16189;SDS011;41754;51.498;7.540;2023-04-24T19:45:10;6.30;;;3.30;;
16189;SDS011;41754;51.498;7.540;2023-04-24T19:47:38;6.20;;;3.40;;
16189;SDS011;41754;51.498;7.540;2023-04-24T19:50:06;8.60;;;3.17;;
16189;SDS011;41754;51.498;7.540;2023-04-24T19:52:34;6.43;;;3.17;;
16189;SDS011;41754;51.498;7.540;2023-04-24T19:55:03;9.73;;;3.43;;
16189;SDS011;41754;51.498;7.540;2023-04-24T19:57:31;6.70;;;3.20;;
16189;SDS011;41754;51.498;7.540;2023-04-24T20:00:01;6.03;;;3.40;;
16189;SDS011;41754;51.498;7.540;2023-04-24T20:02:30;6.67;;;3.33;;
16189;SDS011;41754;51.498;7.540;2023-04-24T20:04:59;8.20;;;2.97;;
16189;SDS011;41754;51.498;7.540;2023-04-24T20:07:27;8.13;;;3.27;;
16189;SDS011;41754;51.498;7.540;2023-04-24T20:09:55;7.17;;;3.37;;
16189;SDS011;41754;51.498;7.540;2023-04-24T20:12:23;6.90;;;3.00;;
16189;SDS011;41754;51.498;7.540;2023-04-24T20:14:51;5.67;;;2.90;;
16189;SDS011;41754;51.498;7.540;2023-04-24T20:17:20;8.30;;;3.17;;
16189;SDS011;41754;51.498;7.540;2023-04-24T20:19:48;5.27;;;2.80;;
16189;SDS011;41754;51.498;7.540;2023-04-24T20:22:16;4.20;;;3.20;;
16189;SDS011;41754;51.498;7.540;2023-04-24T20:24:44;5.27;;;3.00;;
16189;SDS011;41754;51.498;7.540;2023-04-24T20:27:12;7.00;;;3.23;;
16189;SDS011;41754;51.498;7.540;2023-04-24T20:29:40;8.17;;;3.63;;
16189;SDS011;41754;51.498;7.540;2023-04-24T20:32:08;7.37;;;3.00;;
16189;SDS011;41754;51.498;7.540;2023-04-24T20:34:38;9.20;;;3.43;;
16189;SDS011;41754;51.498;7.540;2023-04-24T20:37:06;7.60;;;3.33;;
16189;SDS011;41754;51.498;7.540;2023-04-24T20:39:33;5.07;;;2.90;;